Terminal Aerodrome Forecast
Issued by NWS

Home | Current Version | Previous Version | Text Only | Print | Product List | Glossary On
Versions: 1 2 3 4 5 6 7 8 9 10 11 12 13 14 15 16 17 18 19 20 21 22 23 24 25
000
FTUS44 KOUN 291335 AAA
TAFHBR
TAF AMD
KHBR 291335Z 2914/3012 07012G22KT P6SM SCT020
      TEMPO 2915/2917 VRB20G28KT 6SM TSRA BKN025CB
     FM291800 12011KT P6SM SCT070
     FM292100 18010G18KT P6SM SCT050 PROB30 2923/3004 4SM TSRA
      BKN040CB OVC100
     FM300400 12009KT P6SM BKN250=

USA.gov is the U.S. government's official web portal to all federal, state and local government web resources and services.